Map

Track Data

SID SEASON NUMBER BASIN SUBBASIN NAME ISO_TIME NATURE LAT LON WMO_WIND WMO_PRES WMO_AGENCY TRACK_TYPE DIST2LAND LANDFALL IFLAG USA_AGENCY USA_ATCF_ID USA_LAT USA_LON USA_RECORD USA_STATUS USA_WIND USA_PRES USA_SSHS USA_R34_NE USA_R34_SE USA_R34_SW USA_R34_NW USA_R50_NE USA_R50_SE USA_R50_SW USA_R50_NW USA_R64_NE USA_R64_SE USA_R64_SW USA_R64_NW USA_POCI USA_ROCI USA_RMW USA_EYE TOKYO_LAT TOKYO_LON TOKYO_GRADE TOKYO_WIND TOKYO_PRES TOKYO_R50_DIR TOKYO_R50_LONG TOKYO_R50_SHORT TOKYO_R30_DIR TOKYO_R30_LONG TOKYO_R30_SHORT TOKYO_LAND CMA_LAT CMA_LON CMA_CAT CMA_WIND CMA_PRES HKO_LAT HKO_LON HKO_CAT HKO_WIND HKO_PRES NEWDELHI_LAT NEWDELHI_LON NEWDELHI_GRADE NEWDELHI_WIND NEWDELHI_PRES NEWDELHI_CI NEWDELHI_DP NEWDELHI_POCI REUNION_LAT REUNION_LON REUNION_TYPE REUNION_WIND REUNION_PRES REUNION_TNUM REUNION_CI REUNION_RMW REUNION_R34_NE REUNION_R34_SE REUNION_R34_SW REUNION_R34_NW REUNION_R50_NE REUNION_R50_SE REUNION_R50_SW REUNION_R50_NW REUNION_R64_NE REUNION_R64_SE REUNION_R64_SW REUNION_R64_NW BOM_LAT BOM_LON BOM_TYPE BOM_WIND BOM_PRES BOM_TNUM BOM_CI BOM_RMW BOM_R34_NE BOM_R34_SE BOM_R34_SW BOM_R34_NW BOM_R50_NE BOM_R50_SE BOM_R50_SW BOM_R50_NW BOM_R64_NE BOM_R64_SE BOM_R64_SW BOM_R64_NW BOM_ROCI BOM_POCI BOM_EYE BOM_POS_METHOD BOM_PRES_METHOD NADI_LAT NADI_LON NADI_CAT NADI_WIND NADI_PRES WELLINGTON_LAT WELLINGTON_LON WELLINGTON_WIND WELLINGTON_PRES DS824_LAT DS824_LON DS824_STAGE DS824_WIND DS824_PRES TD9636_LAT TD9636_LON TD9636_STAGE TD9636_WIND TD9636_PRES TD9635_LAT TD9635_LON TD9635_WIND TD9635_PRES TD9635_ROCI NEUMANN_LAT NEUMANN_LON NEUMANN_CLASS NEUMANN_WIND NEUMANN_PRES MLC_LAT MLC_LON MLC_CLASS MLC_WIND MLC_PRES USA_GUST BOM_GUST BOM_GUST_PER REUNION_GUST REUNION_GUST_PER USA_SEAHGT USA_SEARAD_NE USA_SEARAD_SE USA_SEARAD_SW USA_SEARAD_NW STORM_SPEED STORM_DIR
1918014N07086 1918 4 NI BB NOT_NAMED 1918-01-14 00:00:00 TS 6.70000 86.2000 main 476 464 _________O____ -1 6.70000 86.2000 TC 34 3 329
1918014N07086 1918 4 NI BB NOT_NAMED 1918-01-14 03:00:00 TS 6.82667 86.1250 main 464 463 _________PO___ -1 6.89001 86.0875 TC 36 6.70000 86.2000 2 4 336
1918014N07086 1918 4 NI BB NOT_NAMED 1918-01-14 06:00:00 TS 7.02876 86.0488 main 452 452 _________OP___ -1 7.10000 86.0000 TC 39 6.92189 86.1219 2 5 343
1918014N07086 1918 4 NI BB NOT_NAMED 1918-01-14 09:00:00 TS 7.25786 85.9907 main 454 443 _________PP___ -1 7.34249 85.9500 TC 42 7.14502 86.0451 2 5 346
1918014N07086 1918 4 NI BB NOT_NAMED 1918-01-14 12:00:00 TS 7.48532 85.9353 main 445 445 _________OP___ -1 7.60000 85.9000 TC 45 7.37064 85.9707 2 5 344
1918014N07086 1918 4 NI BB NOT_NAMED 1918-01-14 15:00:00 TS 7.72500 85.8500 main 448 437 _________PO___ -1 7.85001 85.8000 TC 45 7.60000 85.9000 3 5 341
1918014N07086 1918 4 NI BB NOT_NAMED 1918-01-14 18:00:00 TS 7.96734 85.7665 main 443 432 _________OP___ -1 8.10000 85.7000 TC 45 7.83468 85.8331 3 5 344
1918014N07086 1918 4 NI BB NOT_NAMED 1918-01-14 21:00:00 TS 8.20999 85.7074 main 435 430 _________PP___ -1 8.34249 85.6500 TC 45 8.07748 85.7649 3 5 346
1918014N07086 1918 4 NI BB NOT_NAMED 1918-01-15 00:00:00 TS 8.46577 85.6446 main 430 430 _________OP___ -1 8.60000 85.6000 TC 45 8.33155 85.6893 3 6 344
1918014N07086 1918 4 NI BB NOT_NAMED 1918-01-15 03:00:00 TS 8.74625 85.5575 main 436 429 _________PO___ -1 8.89250 85.5150 TC 45 8.60000 85.6000 3 6 342
1918014N07086 1918 4 NI BB NOT_NAMED 1918-01-15 06:00:00 TS 9.04280 85.4507 main 436 429 _________OP___ -1 9.20000 85.4000 TC 45 8.88560 85.5015 3 6 339
1918014N07086 1918 4 NI BB NOT_NAMED 1918-01-15 09:00:00 TS 9.34247 85.3262 main 429 429 _________PP___ -1 9.49999 85.2650 TC 45 9.18496 85.3874 3 7 336
1918014N07086 1918 4 NI BB NOT_NAMED 1918-01-15 12:00:00 TS 9.64592 85.1773 main 434 429 _________OP___ -1 9.80000 85.1000 TC 45 9.49184 85.2546 3 7 332
1918014N07086 1918 4 NI BB NOT_NAMED 1918-01-15 15:00:00 TS 9.95000 85.0037 main 434 424 _________PO___ -1 10.1000 84.9075 TC 45 9.80000 85.1000 3 7 329
1918014N07086 1918 4 NI BB NOT_NAMED 1918-01-15 18:00:00 TS 10.2561 84.8108 main 429 422 _________OP___ -1 10.4000 84.7000 TC 45 10.1122 84.9216 3 7 328
1918014N07086 1918 4 NI BB NOT_NAMED 1918-01-15 21:00:00 TS 10.5650 84.6113 main 429 422 _________PP___ -1 10.7075 84.5000 TC 45 10.4225 84.7226 3 7 327
1918014N07086 1918 4 NI BB NOT_NAMED 1918-01-16 00:00:00 TS 10.8608 84.4061 main 428 419 _________OP___ -1 11.0000 84.3000 TC 45 10.7216 84.5122 3 7 325
1918014N07086 1918 4 NI BB NOT_NAMED 1918-01-16 03:00:00 TS 11.1325 84.2000 main 423 415 _________PO___ -1 11.2650 84.1000 TC 45 11.0000 84.3000 3 7 322
1918014N07086 1918 4 NI BB NOT_NAMED 1918-01-16 06:00:00 TS 11.3732 84.0019 main 421 404 _________OP___ -1 11.5000 83.9000 TC 45 11.2465 84.1039 3 6 319
1918014N07086 1918 4 NI BB NOT_NAMED 1918-01-16 09:00:00 TS 11.5862 83.8036 main 404 378 _________PP___ -1 11.7000 83.6999 TC 45 11.4724 83.9073 3 6 317
1918014N07086 1918 4 NI BB NOT_NAMED 1918-01-16 12:00:00 TS 11.7936 83.6035 main 378 352 _________OP___ -1 11.9000 83.5000 TC 45 11.6871 83.7070 3 6 318
1918014N07086 1918 4 NI BB NOT_NAMED 1918-01-16 15:00:00 TS 12.0250 83.4037 main 352 326 _________PO___ -1 12.1500 83.3075 TC 45 11.9000 83.5000 3 6 320
1918014N07086 1918 4 NI BB NOT_NAMED 1918-01-16 18:00:00 TS 12.2686 83.1891 main 326 304 _________OP___ -1 12.4000 83.1000 TC 45 12.1372 83.2781 3 6 317
1918014N07086 1918 4 NI BB NOT_NAMED 1918-01-16 21:00:00 TS 12.4938 82.9500 main 304 268 _________PP___ -1 12.6150 82.8500 TC 45 12.3725 83.0500 3 6 313
1918014N07086 1918 4 NI BB NOT_NAMED 1918-01-17 00:00:00 TS 12.6983 82.7110 main 268 242 _________OP___ -1 12.8000 82.6000 TC 45 12.5966 82.8219 3 6 311
1918014N07086 1918 4 NI BB NOT_NAMED 1918-01-17 03:00:00 TS 12.8787 82.4962 main 242 219 _________PO___ -1 12.9575 82.3924 TC 45 12.8000 82.6000 3 5 310
1918014N07086 1918 4 NI BB NOT_NAMED 1918-01-17 06:00:00 TS 13.0337 82.3003 main 219 195 _________OP___ -1 13.1000 82.2000 TC 45 12.9674 82.4007 3 5 308
1918014N07086 1918 4 NI BB NOT_NAMED 1918-01-17 09:00:00 TS 13.1786 82.1073 main 195 173 _________PP___ -1 13.2425 82.0074 TC 45 13.1148 82.2072 3 5 307
1918014N07086 1918 4 NI BB NOT_NAMED 1918-01-17 12:00:00 TS 13.3274 81.9050 main 173 151 _________OP___ -1 13.4000 81.8000 TC 45 13.2549 82.0101 3 5 308
1918014N07086 1918 4 NI BB NOT_NAMED 1918-01-17 15:00:00 TS 13.5000 81.6788 main 151 129 _________PO___ -1 13.6000 81.5575 TC 45 13.4000 81.8000 3 6 307
1918014N07086 1918 4 NI BB NOT_NAMED 1918-01-17 18:00:00 TS 13.6628 81.4543 main 129 97 _________OP___ -1 13.8000 81.3000 TC 45 13.5599 81.5700 3 6 306
1918014N07086 1918 4 NI BB NOT_NAMED 1918-01-17 21:00:00 TS 13.8247 81.2128 main 97 76 _________PP___ -1 13.9625 81.0475 TC 45 13.7328 81.3230 3 6 304
1918014N07086 1918 4 NI BB NOT_NAMED 1918-01-18 00:00:00 TS 13.9762 80.9763 main 78 63 _________OP___ -1 14.1000 80.8000 TC 45 13.9143 81.0645 3 5 304
1918014N07086 1918 4 NI BB NOT_NAMED 1918-01-18 03:00:00 NR 14.1000 80.8000 main 63 __________O___ -1 TC 14.1000 80.8000 3 4 306

About IBTrACS Database

This database is a web-friendly format of International Best Track Archive for Climate Stewardship (IBTrACS), a global best track data archive curated by NOAA dating back to 1842.

Updated: 2021-12-01